createdAt,value
2017-02-04T00:00:02.754Z,943.7
2017-02-04T00:01:02.740Z,943.68
2017-02-04T00:02:02.726Z,943.66
2017-02-04T00:03:02.712Z,943.73
2017-02-04T00:04:02.698Z,943.69
2017-02-04T00:05:02.686Z,943.72
2017-02-04T00:06:02.670Z,943.66
2017-02-04T00:07:02.656Z,943.69
2017-02-04T00:08:02.642Z,943.71
2017-02-04T00:09:02.629Z,943.69
2017-02-04T00:10:02.614Z,943.72
2017-02-04T00:11:02.601Z,943.73
2017-02-04T00:12:02.586Z,943.73
2017-02-04T00:13:02.573Z,943.65
2017-02-04T00:14:02.559Z,943.69
2017-02-04T00:15:02.545Z,943.66
2017-02-04T00:16:02.531Z,943.66
2017-02-04T00:17:02.518Z,943.67
2017-02-04T00:18:02.503Z,943.69
2017-02-04T00:19:02.489Z,943.65
2017-02-04T00:20:02.475Z,943.64
2017-02-04T00:21:02.461Z,943.67
2017-02-04T00:22:02.447Z,943.72
2017-02-04T00:23:02.433Z,943.71
2017-02-04T00:24:02.421Z,943.66
2017-02-04T00:25:02.407Z,943.68
2017-02-04T00:26:02.392Z,943.7
2017-02-04T00:27:02.379Z,943.68
2017-02-04T00:28:02.364Z,943.65
2017-02-04T00:29:02.350Z,943.64
2017-02-04T00:30:02.336Z,943.65
2017-02-04T00:31:02.321Z,943.65
2017-02-04T00:32:02.309Z,943.58
2017-02-04T00:33:02.295Z,943.55
2017-02-04T00:34:02.283Z,943.51
2017-02-04T00:35:02.269Z,943.5
2017-02-04T00:36:02.253Z,943.47
2017-02-04T00:37:02.238Z,943.5
2017-02-04T00:38:02.225Z,943.47
2017-02-04T00:39:02.211Z,943.49
2017-02-04T00:40:02.198Z,943.47
2017-02-04T00:41:02.183Z,943.5
2017-02-04T00:42:02.171Z,943.48
2017-02-04T00:43:02.155Z,943.53
2017-02-04T00:44:02.142Z,943.52
2017-02-04T00:45:02.127Z,943.5
2017-02-04T00:46:02.114Z,943.48
2017-02-04T00:47:02.100Z,943.46
2017-02-04T00:48:02.086Z,943.36
2017-02-04T00:49:02.072Z,943.28
2017-02-04T00:50:02.060Z,943.25
2017-02-04T00:51:02.044Z,943.27
2017-02-04T00:52:02.030Z,943.34
2017-02-04T00:53:02.015Z,943.33
2017-02-04T00:54:02.001Z,943.39
2017-02-04T00:55:01.988Z,943.38
2017-02-04T00:56:01.974Z,943.37
2017-02-04T00:57:01.960Z,943.36
2017-02-04T00:58:01.944Z,943.43
2017-02-04T00:59:01.932Z,943.43
2017-02-04T01:00:01.918Z,943.49
2017-02-04T01:01:01.902Z,943.48
2017-02-04T01:02:01.888Z,943.45
2017-02-04T01:03:01.875Z,943.48
2017-02-04T01:04:01.861Z,943.46
2017-02-04T01:05:01.845Z,943.43
2017-02-04T01:06:01.832Z,943.49
2017-02-04T01:07:01.817Z,943.46
2017-02-04T01:08:01.804Z,943.46
2017-02-04T01:09:01.789Z,943.51
2017-02-04T01:10:01.778Z,943.5
2017-02-04T01:11:01.763Z,943.48
2017-02-04T01:12:01.744Z,943.46
2017-02-04T01:13:01.732Z,943.47
2017-02-04T01:14:01.718Z,943.47
2017-02-04T01:15:01.704Z,943.47
2017-02-04T01:16:01.690Z,943.41
2017-02-04T01:17:01.675Z,943.43
2017-02-04T01:18:01.662Z,943.4
2017-02-04T01:19:01.646Z,943.41
2017-02-04T01:20:01.631Z,943.38
2017-02-04T01:21:01.617Z,943.36
2017-02-04T01:22:01.602Z,943.39
2017-02-04T01:23:01.587Z,943.41
2017-02-04T01:24:01.574Z,943.45
2017-02-04T01:25:01.560Z,943.47
2017-02-04T01:26:01.545Z,943.5
2017-02-04T01:27:01.533Z,943.43
2017-02-04T01:28:01.679Z,943.43
2017-02-04T01:29:01.502Z,943.39
2017-02-04T01:30:01.495Z,943.4
2017-02-04T01:31:01.471Z,943.42
2017-02-04T01:32:01.456Z,943.41
2017-02-04T01:33:01.443Z,943.33
2017-02-04T01:34:01.588Z,943.37
2017-02-04T01:35:01.414Z,943.34
2017-02-04T01:36:01.396Z,943.34
2017-02-04T01:37:01.468Z,943.33
2017-02-04T01:38:01.368Z,943.33
2017-02-04T01:39:01.353Z,943.34
2017-02-04T01:40:01.514Z,943.37
2017-02-04T01:41:01.324Z,943.35
2017-02-04T01:42:01.308Z,943.35
2017-02-04T01:43:01.846Z,943.33
2017-02-04T01:44:01.279Z,943.35
2017-02-04T01:45:01.263Z,943.36
2017-02-04T01:46:01.248Z,943.35
2017-02-04T01:47:01.267Z,943.36
2017-02-04T01:48:01.219Z,943.34
2017-02-04T01:49:01.205Z,943.29
2017-02-04T01:50:01.223Z,943.28
2017-02-04T01:51:01.177Z,943.31
2017-02-04T01:52:01.161Z,943.29
2017-02-04T01:53:01.442Z,943.32
2017-02-04T01:54:01.132Z,943.28
2017-02-04T01:55:01.116Z,943.3
2017-02-04T01:56:01.258Z,943.32
2017-02-04T01:57:01.086Z,943.32
2017-02-04T01:58:01.070Z,943.34
2017-02-04T01:59:01.191Z,943.3
2017-02-04T02:00:01.041Z,943.29
2017-02-04T02:01:01.059Z,943.32
2017-02-04T02:02:01.012Z,943.24
2017-02-04T02:03:00.997Z,943.31
2017-02-04T02:04:00.981Z,943.3
2017-02-04T02:05:00.967Z,943.27
2017-02-04T02:06:00.953Z,943.28
2017-02-04T02:07:00.936Z,943.34
2017-02-04T02:08:00.921Z,943.37
2017-02-04T02:09:00.908Z,943.38
2017-02-04T02:10:00.930Z,943.34
2017-02-04T02:11:00.877Z,943.33
2017-02-04T02:12:00.862Z,943.34
2017-02-04T02:13:00.847Z,943.32
2017-02-04T02:14:00.834Z,943.34
2017-02-04T02:15:00.818Z,943.34
2017-02-04T02:16:00.804Z,943.37
2017-02-04T02:17:00.789Z,943.34
2017-02-04T02:18:00.774Z,943.37
2017-02-04T02:19:00.781Z,943.38
2017-02-04T02:20:00.744Z,943.36
2017-02-04T02:21:00.729Z,943.39
2017-02-04T02:22:00.715Z,943.41
2017-02-04T02:23:00.700Z,943.4
2017-02-04T02:24:00.686Z,943.47
2017-02-04T02:25:00.670Z,943.45
2017-02-04T02:26:00.656Z,943.42
2017-02-04T02:27:00.641Z,943.39
2017-02-04T02:28:00.627Z,943.42
2017-02-04T02:29:00.611Z,943.38
2017-02-04T02:30:00.596Z,943.4
2017-02-04T02:31:00.581Z,943.34
2017-02-04T02:32:00.568Z,943.38
2017-02-04T02:33:00.551Z,943.4
2017-02-04T02:34:00.538Z,943.37
2017-02-04T02:35:00.523Z,943.36
2017-02-04T02:36:00.545Z,943.36
2017-02-04T02:37:00.493Z,943.39
2017-02-04T02:38:00.479Z,943.38
2017-02-04T02:39:00.463Z,943.35
2017-02-04T02:40:00.447Z,943.34
2017-02-04T02:41:00.434Z,943.36
2017-02-04T02:42:00.419Z,943.36
2017-02-04T02:43:00.406Z,943.33
2017-02-04T02:44:00.389Z,943.38
2017-02-04T02:45:00.377Z,943.37
2017-02-04T02:46:00.360Z,943.42
2017-02-04T02:47:00.346Z,943.4
2017-02-04T02:48:00.331Z,943.49
2017-02-04T02:49:00.317Z,943.48
2017-02-04T02:50:00.302Z,943.45
2017-02-04T02:51:00.286Z,943.5
2017-02-04T02:52:00.272Z,943.51
2017-02-04T02:53:00.258Z,943.57
2017-02-04T02:54:00.245Z,943.59
2017-02-04T02:55:00.229Z,943.62
2017-02-04T02:56:00.251Z,943.54
2017-02-04T02:57:00.200Z,943.57
2017-02-04T02:58:00.183Z,943.5
2017-02-04T02:59:00.205Z,943.54
2017-02-04T03:00:00.155Z,943.58
2017-02-04T03:01:00.140Z,943.52
2017-02-04T03:02:00.124Z,943.5
2017-02-04T03:03:00.194Z,943.53
2017-02-04T03:04:00.129Z,943.52
2017-02-04T03:05:00.083Z,943.56
2017-02-04T03:06:00.066Z,943.57
2017-02-04T03:07:00.087Z,943.63
2017-02-04T03:08:00.037Z,943.59
2017-02-04T03:09:00.023Z,943.7
2017-02-04T03:10:00.040Z,943.68
2017-02-04T03:10:59.993Z,943.68
2017-02-04T03:11:59.980Z,943.76
2017-02-04T03:13:00.044Z,943.73
2017-02-04T03:13:59.950Z,943.77
2017-02-04T03:14:59.936Z,943.77
2017-02-04T03:15:59.966Z,943.76
2017-02-04T03:16:59.905Z,943.82
2017-02-04T03:17:59.896Z,943.81
2017-02-04T03:18:59.901Z,943.79
2017-02-04T03:19:59.862Z,943.84
2017-02-04T03:20:59.847Z,943.77
2017-02-04T03:21:59.868Z,943.83
2017-02-04T03:22:59.817Z,943.84
2017-02-04T03:23:59.833Z,943.8
2017-02-04T03:24:59.789Z,943.79
2017-02-04T03:25:59.775Z,943.78
2017-02-04T03:26:59.770Z,943.81
2017-02-04T03:27:59.745Z,943.84
2017-02-04T03:28:59.731Z,943.88
2017-02-04T03:29:59.749Z,943.85
2017-02-04T03:30:59.702Z,943.87
2017-02-04T03:31:59.687Z,943.88
2017-02-04T03:32:59.770Z,943.88
2017-02-04T03:33:59.668Z,943.93
2017-02-04T03:34:59.655Z,943.91
2017-02-04T03:35:59.723Z,943.94
2017-02-04T03:36:59.671Z,943.88
2017-02-04T03:37:59.655Z,943.86
2017-02-04T03:38:59.673Z,943.8
2017-02-04T03:39:59.629Z,943.87
2017-02-04T03:40:59.613Z,943.83
2017-02-04T03:41:59.633Z,943.85
2017-02-04T03:42:59.584Z,943.9
2017-02-04T03:43:59.571Z,943.91
2017-02-04T03:44:59.581Z,943.92
2017-02-04T03:45:59.542Z,943.9
2017-02-04T03:46:59.527Z,943.88
2017-02-04T03:47:59.594Z,943.93
2017-02-04T03:48:59.497Z,943.87
2017-02-04T03:49:59.484Z,943.9
2017-02-04T03:50:59.501Z,943.93
2017-02-04T03:51:59.455Z,943.9
2017-02-04T03:52:59.439Z,943.95
2017-02-04T03:53:59.457Z,943.97
2017-02-04T03:54:59.411Z,943.98
2017-02-04T03:55:59.395Z,943.99
2017-02-04T03:56:59.418Z,943.99
2017-02-04T03:57:59.366Z,944.04
2017-02-04T03:58:59.353Z,944.01
2017-02-04T03:59:59.338Z,944.04
2017-02-04T04:00:59.324Z,943.95
2017-02-04T04:01:59.311Z,944.01
2017-02-04T04:02:59.295Z,944.05
2017-02-04T04:03:59.280Z,944.03
2017-02-04T04:04:59.266Z,944.04
2017-02-04T04:05:59.252Z,943.93
2017-02-04T04:06:59.236Z,943.96
2017-02-04T04:07:59.221Z,943.91
2017-02-04T04:08:59.207Z,943.94
2017-02-04T04:09:59.192Z,943.91
2017-02-04T04:10:59.178Z,943.91
2017-02-04T04:11:59.164Z,943.87
2017-02-04T04:12:59.149Z,943.86
2017-02-04T04:13:59.134Z,943.86
2017-02-04T04:14:59.119Z,943.81
2017-02-04T04:15:59.107Z,943.75
2017-02-04T04:16:59.091Z,943.78
2017-02-04T04:17:59.077Z,943.77
2017-02-04T04:18:59.061Z,943.72
2017-02-04T04:19:59.047Z,943.7
2017-02-04T04:20:59.033Z,943.7
2017-02-04T04:21:59.019Z,943.74
2017-02-04T04:22:59.004Z,943.74
2017-02-04T04:23:58.992Z,943.74
2017-02-04T04:24:58.975Z,943.75
2017-02-04T04:25:58.962Z,943.73
2017-02-04T04:26:58.947Z,943.69
2017-02-04T04:27:58.933Z,943.69
2017-02-04T04:28:58.917Z,943.73
2017-02-04T04:29:58.903Z,943.68
2017-02-04T04:30:58.890Z,943.66
2017-02-04T04:31:58.875Z,943.66
2017-02-04T04:32:58.862Z,943.58
2017-02-04T04:33:58.845Z,943.59
2017-02-04T04:34:58.833Z,943.56
2017-02-04T04:35:58.819Z,943.57
2017-02-04T04:36:58.803Z,943.53
2017-02-04T04:37:58.790Z,943.62
2017-02-04T04:38:58.775Z,943.61
2017-02-04T04:39:58.759Z,943.61
2017-02-04T04:40:58.746Z,943.58
2017-02-04T04:41:58.756Z,943.54
2017-02-04T04:42:58.715Z,943.57
2017-02-04T04:43:58.701Z,943.53
2017-02-04T04:44:58.687Z,943.56
2017-02-04T04:45:58.673Z,943.53
2017-02-04T04:46:58.676Z,943.55
2017-02-04T04:47:58.646Z,943.57
2017-02-04T04:48:58.630Z,943.54
2017-02-04T04:49:58.615Z,943.57
2017-02-04T04:50:58.601Z,943.6
2017-02-04T04:51:58.586Z,943.6
2017-02-04T04:52:58.572Z,943.6
2017-02-04T04:53:58.557Z,943.52
2017-02-04T04:54:58.542Z,943.51
2017-02-04T04:55:58.529Z,943.53
2017-02-04T04:56:58.514Z,943.52
2017-02-04T04:57:58.499Z,943.56
2017-02-04T04:58:58.484Z,943.5
2017-02-04T04:59:58.470Z,943.51
2017-02-04T05:00:58.457Z,943.47
2017-02-04T05:01:58.442Z,943.48
2017-02-04T05:02:58.428Z,943.5
2017-02-04T05:03:58.414Z,943.5
2017-02-04T05:04:58.398Z,943.5
2017-02-04T05:05:58.385Z,943.51
2017-02-04T05:06:58.370Z,943.45
2017-02-04T05:07:58.357Z,943.45
2017-02-04T05:08:58.341Z,943.41
2017-02-04T05:09:58.328Z,943.44
2017-02-04T05:10:58.312Z,943.38
2017-02-04T05:11:58.297Z,943.35
2017-02-04T05:12:58.284Z,943.4
2017-02-04T05:13:58.268Z,943.39
2017-02-04T05:14:58.255Z,943.34
2017-02-04T05:15:58.241Z,943.36
2017-02-04T05:16:58.229Z,943.43
2017-02-04T05:17:58.212Z,943.42
2017-02-04T05:18:58.197Z,943.43
2017-02-04T05:19:58.181Z,943.43
2017-02-04T05:20:58.168Z,943.39
2017-02-04T05:21:58.158Z,943.44
2017-02-04T05:22:58.138Z,943.39
2017-02-04T05:23:58.124Z,943.32
2017-02-04T05:24:58.111Z,943.38
2017-02-04T05:25:58.096Z,943.3
2017-02-04T05:26:58.080Z,943.32
2017-02-04T05:27:58.066Z,943.35
2017-02-04T05:28:58.052Z,943.31
2017-02-04T05:29:58.037Z,943.34
2017-02-04T05:30:58.021Z,943.42
2017-02-04T05:31:58.010Z,943.44
2017-02-04T05:32:57.994Z,943.43
2017-02-04T05:33:57.979Z,943.46
2017-02-04T05:34:57.965Z,943.43
2017-02-04T05:35:57.950Z,943.4
2017-02-04T05:36:57.935Z,943.46
2017-02-04T05:37:57.919Z,943.37
2017-02-04T05:38:57.906Z,943.43
2017-02-04T05:39:57.891Z,943.43
2017-02-04T05:40:57.878Z,943.41
2017-02-04T05:41:57.861Z,943.39
2017-02-04T05:42:57.847Z,943.42
2017-02-04T05:43:57.832Z,943.36
2017-02-04T05:44:57.818Z,943.38
2017-02-04T05:45:57.803Z,943.33
2017-02-04T05:46:57.790Z,943.34
2017-02-04T05:47:57.774Z,943.3
2017-02-04T05:48:57.759Z,943.36
2017-02-04T05:49:57.744Z,943.3
2017-02-04T05:50:57.731Z,943.32
2017-02-04T05:51:57.717Z,943.32
2017-02-04T05:52:57.700Z,943.31
2017-02-04T05:53:57.684Z,943.33
2017-02-04T05:54:57.672Z,943.34
2017-02-04T05:55:57.658Z,943.27
2017-02-04T05:56:57.643Z,943.28
2017-02-04T05:57:57.629Z,943.39
2017-02-04T05:58:57.613Z,943.23
2017-02-04T05:59:57.598Z,943.36
2017-02-04T06:00:57.583Z,943.33
2017-02-04T06:01:57.569Z,943.34
2017-02-04T06:02:57.553Z,943.29
2017-02-04T06:03:57.541Z,943.32
2017-02-04T06:04:57.525Z,943.33
2017-02-04T06:05:57.511Z,943.31
2017-02-04T06:06:57.494Z,943.3
2017-02-04T06:07:57.481Z,943.3
2017-02-04T06:08:57.469Z,943.37
2017-02-04T06:09:57.451Z,943.34
2017-02-04T06:10:57.436Z,943.37
2017-02-04T06:11:57.422Z,943.35
2017-02-04T06:12:57.406Z,943.29
2017-02-04T06:13:57.392Z,943.33
2017-02-04T06:14:57.376Z,943.34
2017-02-04T06:15:57.362Z,943.35
2017-02-04T06:16:57.347Z,943.32
2017-02-04T06:17:57.332Z,943.34
2017-02-04T06:18:57.319Z,943.37
2017-02-04T06:19:57.303Z,943.34
2017-02-04T06:20:57.287Z,943.34
2017-02-04T06:21:57.273Z,943.32
2017-02-04T06:22:57.260Z,943.26
2017-02-04T06:23:57.244Z,943.25
2017-02-04T06:24:57.229Z,943.27
2017-02-04T06:25:57.242Z,943.27
2017-02-04T06:26:57.200Z,943.32
2017-02-04T06:27:57.184Z,943.28
2017-02-04T06:28:57.170Z,943.3
2017-02-04T06:29:57.154Z,943.27
2017-02-04T06:30:57.140Z,943.2
2017-02-04T06:31:57.125Z,943.21
2017-02-04T06:32:57.109Z,943.18
2017-02-04T06:33:57.094Z,943.24
2017-02-04T06:34:57.081Z,943.28
2017-02-04T06:35:57.065Z,943.26
2017-02-04T06:36:57.048Z,943.24
2017-02-04T06:37:57.034Z,943.29
2017-02-04T06:38:57.019Z,943.27
2017-02-04T06:39:57.004Z,943.32
2017-02-04T06:40:56.989Z,943.34
2017-02-04T06:41:56.974Z,943.35
2017-02-04T06:42:56.960Z,943.32
2017-02-04T06:43:56.943Z,943.27
2017-02-04T06:44:56.928Z,943.26
2017-02-04T06:45:56.913Z,943.32
2017-02-04T06:46:56.895Z,943.33
2017-02-04T06:47:56.883Z,943.31
2017-02-04T06:48:56.867Z,943.3
2017-02-04T06:49:56.852Z,943.28
2017-02-04T06:50:56.835Z,943.29
2017-02-04T06:51:56.821Z,943.34
2017-02-04T06:52:56.805Z,943.27
2017-02-04T06:53:56.789Z,943.3
2017-02-04T06:54:56.773Z,943.32
2017-02-04T06:55:56.759Z,943.32
2017-02-04T06:56:56.744Z,943.36
2017-02-04T06:57:56.728Z,943.36
2017-02-04T06:58:56.712Z,943.37
2017-02-04T06:59:56.698Z,943.35
2017-02-04T07:00:56.683Z,943.39
2017-02-04T07:01:56.666Z,943.43
2017-02-04T07:02:56.650Z,943.44
2017-02-04T07:03:56.634Z,943.45
2017-02-04T07:04:56.620Z,943.47
2017-02-04T07:05:56.603Z,943.45
2017-02-04T07:06:56.587Z,943.45
2017-02-04T07:07:56.576Z,943.43
2017-02-04T07:08:56.555Z,943.42
2017-02-04T07:09:56.542Z,943.38
2017-02-04T07:10:56.526Z,943.39
2017-02-04T07:11:56.511Z,943.29
2017-02-04T07:12:56.494Z,943.35
2017-02-04T07:13:56.478Z,943.26
2017-02-04T07:14:56.464Z,943.32
2017-02-04T07:15:56.448Z,943.27
2017-02-04T07:16:56.433Z,943.28
2017-02-04T07:17:56.418Z,943.28
2017-02-04T07:18:56.401Z,943.28
2017-02-04T07:19:56.384Z,943.3
2017-02-04T07:20:56.368Z,943.34
2017-02-04T07:21:56.355Z,943.28
2017-02-04T07:22:56.338Z,943.33
2017-02-04T07:23:56.323Z,943.32
2017-02-04T07:24:56.307Z,943.36
2017-02-04T07:25:56.292Z,943.32
2017-02-04T07:26:56.277Z,943.3
2017-02-04T07:27:56.260Z,943.27
2017-02-04T07:28:56.247Z,943.28
2017-02-04T07:29:56.234Z,943.28
2017-02-04T07:30:56.212Z,943.25
2017-02-04T07:31:56.196Z,943.28
2017-02-04T07:32:56.181Z,943.23
2017-02-04T07:33:56.166Z,943.22
2017-02-04T07:34:56.150Z,943.22
2017-02-04T07:35:56.133Z,943.24
2017-02-04T07:36:56.118Z,943.24
2017-02-04T07:37:56.103Z,943.16
2017-02-04T07:38:56.088Z,943.21
2017-02-04T07:39:56.072Z,943.27
2017-02-04T07:40:56.055Z,943.29
2017-02-04T07:41:56.042Z,943.3
2017-02-04T07:42:56.023Z,943.35
2017-02-04T07:43:56.008Z,943.3
2017-02-04T07:44:55.993Z,943.29
2017-02-04T07:45:55.977Z,943.28
2017-02-04T07:46:55.961Z,943.3
2017-02-04T07:47:55.949Z,943.28
2017-02-04T07:48:55.932Z,943.31
2017-02-04T07:49:55.914Z,943.29
2017-02-04T07:50:55.898Z,943.24
2017-02-04T07:51:55.882Z,943.3
2017-02-04T07:52:55.866Z,943.31
2017-02-04T07:53:55.849Z,943.27
2017-02-04T07:54:55.834Z,943.28
2017-02-04T07:55:55.820Z,943.27
2017-02-04T07:56:55.803Z,943.24
2017-02-04T07:57:55.788Z,943.2
2017-02-04T07:58:55.773Z,943.23
2017-02-04T07:59:55.758Z,943.24
2017-02-04T08:00:55.741Z,943.22
2017-02-04T08:01:55.730Z,943.18
2017-02-04T08:02:55.711Z,943.23
2017-02-04T08:03:55.693Z,943.2
2017-02-04T08:04:55.679Z,943.2
2017-02-04T08:05:55.662Z,943.19
2017-02-04T08:06:55.646Z,943.25
2017-02-04T08:07:55.630Z,943.24
2017-02-04T08:08:55.614Z,943.3
2017-02-04T08:09:55.600Z,943.28
2017-02-04T08:10:55.583Z,943.22
2017-02-04T08:11:55.568Z,943.22
2017-02-04T08:12:55.551Z,943.25
2017-02-04T08:13:55.537Z,943.26
2017-02-04T08:14:55.522Z,943.24
2017-02-04T08:15:55.506Z,943.23
2017-02-04T08:16:55.491Z,943.26
2017-02-04T08:17:55.476Z,943.21
2017-02-04T08:18:55.459Z,943.19
2017-02-04T08:19:55.445Z,943.25
2017-02-04T08:20:55.428Z,943.22
2017-02-04T08:21:55.411Z,943.19
2017-02-04T08:22:55.400Z,943.2
2017-02-04T08:23:55.383Z,943.2
2017-02-04T08:24:55.367Z,943.18
2017-02-04T08:25:55.351Z,943.13
2017-02-04T08:26:55.335Z,943.1
2017-02-04T08:27:55.320Z,943.09
2017-02-04T08:28:55.306Z,943.07
2017-02-04T08:29:55.290Z,943.08
2017-02-04T08:30:55.274Z,943.07
2017-02-04T08:31:55.259Z,943.11
2017-02-04T08:32:55.244Z,943.1
2017-02-04T08:33:55.230Z,943.07
2017-02-04T08:34:55.214Z,943.04
2017-02-04T08:35:55.198Z,942.98
2017-02-04T08:36:55.183Z,943
2017-02-04T08:37:55.167Z,942.99
2017-02-04T08:38:55.153Z,942.89
2017-02-04T08:39:55.137Z,942.94
2017-02-04T08:40:55.122Z,942.9
2017-02-04T08:41:55.107Z,942.9
2017-02-04T08:42:55.092Z,942.89
2017-02-04T08:43:55.076Z,942.89
2017-02-04T08:44:55.062Z,942.83
2017-02-04T08:45:55.047Z,942.82
2017-02-04T08:46:55.033Z,942.8
2017-02-04T08:47:55.016Z,942.79
2017-02-04T08:48:55.000Z,942.8
2017-02-04T08:49:54.988Z,942.75
2017-02-04T08:50:54.973Z,942.78
2017-02-04T08:51:54.953Z,942.83
2017-02-04T08:52:54.941Z,942.78
2017-02-04T08:53:54.925Z,942.82
2017-02-04T08:54:54.912Z,942.76
2017-02-04T08:55:54.896Z,942.73
2017-02-04T08:56:54.882Z,942.73
2017-02-04T08:57:54.866Z,942.72
2017-02-04T08:58:54.851Z,942.67
2017-02-04T08:59:54.836Z,942.7
2017-02-04T09:00:54.827Z,942.73
2017-02-04T09:01:54.807Z,942.72
2017-02-04T09:02:54.791Z,942.72
2017-02-04T09:03:54.776Z,942.76
2017-02-04T09:04:54.762Z,942.8
2017-02-04T09:05:54.745Z,942.8
2017-02-04T09:06:54.731Z,942.79
2017-02-04T09:07:54.717Z,942.8
2017-02-04T09:08:54.703Z,942.8
2017-02-04T09:09:54.686Z,942.79
2017-02-04T09:10:54.673Z,942.8
2017-02-04T09:11:54.657Z,942.82
2017-02-04T09:12:54.644Z,942.84
2017-02-04T09:13:54.630Z,942.79
2017-02-04T09:14:54.612Z,942.83
2017-02-04T09:15:54.599Z,942.86
2017-02-04T09:16:54.583Z,942.86
2017-02-04T09:17:54.569Z,942.87
2017-02-04T09:18:54.554Z,942.87
2017-02-04T09:19:54.540Z,942.91
2017-02-04T09:20:54.523Z,942.9
2017-02-04T09:21:54.509Z,942.92
2017-02-04T09:22:54.495Z,942.93
2017-02-04T09:23:54.480Z,942.88
2017-02-04T09:24:54.466Z,942.87
2017-02-04T09:25:54.451Z,942.89
2017-02-04T09:26:54.437Z,942.88
2017-02-04T09:27:54.455Z,942.86
2017-02-04T09:28:54.407Z,942.83
2017-02-04T09:29:54.393Z,942.84
2017-02-04T09:30:54.378Z,942.77
2017-02-04T09:31:54.367Z,942.78
2017-02-04T09:32:54.350Z,942.76
2017-02-04T09:33:54.335Z,942.77
2017-02-04T09:34:54.320Z,942.76
2017-02-04T09:35:54.305Z,942.7
2017-02-04T09:36:54.295Z,942.72
2017-02-04T09:37:54.277Z,942.67
2017-02-04T09:38:54.261Z,942.67
2017-02-04T09:39:54.248Z,942.6
2017-02-04T09:40:54.234Z,942.67
2017-02-04T09:41:54.219Z,942.69
2017-02-04T09:42:54.205Z,942.77
2017-02-04T09:43:54.191Z,942.8
2017-02-04T09:44:54.176Z,942.82
2017-02-04T09:45:54.169Z,942.86
2017-02-04T09:46:54.149Z,942.85
2017-02-04T09:47:54.134Z,942.8
2017-02-04T09:48:54.119Z,942.79
2017-02-04T09:49:54.106Z,942.76
2017-02-04T09:50:54.092Z,942.83
2017-02-04T09:51:54.078Z,942.87
2017-02-04T09:52:54.063Z,942.89
2017-02-04T09:53:54.049Z,942.84
2017-02-04T09:54:54.034Z,942.79
2017-02-04T09:55:54.021Z,942.76
2017-02-04T09:56:54.005Z,942.68
2017-02-04T09:57:53.992Z,942.71
2017-02-04T09:58:53.978Z,942.73
2017-02-04T09:59:53.964Z,942.76
2017-02-04T10:00:53.947Z,942.77
2017-02-04T10:01:53.934Z,942.75
2017-02-04T10:02:53.924Z,942.74
2017-02-04T10:03:53.907Z,942.81
2017-02-04T10:04:53.892Z,942.83
2017-02-04T10:05:53.877Z,942.88
2017-02-04T10:06:53.864Z,942.87
2017-02-04T10:07:53.849Z,942.87
2017-02-04T10:08:53.836Z,942.86
2017-02-04T10:09:53.821Z,942.83
2017-02-04T10:10:53.807Z,942.85
2017-02-04T10:11:53.793Z,942.86
2017-02-04T10:12:53.780Z,942.87
2017-02-04T10:13:53.765Z,942.79
2017-02-04T10:14:53.751Z,942.76
2017-02-04T10:15:53.736Z,942.72
2017-02-04T10:16:53.727Z,942.71
2017-02-04T10:17:53.708Z,942.7
2017-02-04T10:18:53.693Z,942.71
2017-02-04T10:19:53.680Z,942.69
2017-02-04T10:20:53.667Z,942.67
2017-02-04T10:21:53.652Z,942.66
2017-02-04T10:22:53.637Z,942.67
2017-02-04T10:23:53.623Z,942.61
2017-02-04T10:24:53.609Z,942.63
2017-02-04T10:25:53.594Z,942.63
2017-02-04T10:26:53.582Z,942.61
2017-02-04T10:27:53.567Z,942.65
2017-02-04T10:28:53.553Z,942.61
2017-02-04T10:29:53.538Z,942.59
2017-02-04T10:30:53.525Z,942.62
2017-02-04T10:31:53.512Z,942.59
2017-02-04T10:32:53.497Z,942.57
2017-02-04T10:33:53.483Z,942.57
2017-02-04T10:34:53.469Z,942.55
2017-02-04T10:35:53.456Z,942.53
2017-02-04T10:36:53.442Z,942.54
2017-02-04T10:37:53.427Z,942.55
2017-02-04T10:38:53.413Z,942.51
2017-02-04T10:39:53.401Z,942.44
2017-02-04T10:40:53.386Z,942.45
2017-02-04T10:41:53.374Z,942.44
2017-02-04T10:42:53.360Z,942.47
2017-02-04T10:43:53.345Z,942.42
2017-02-04T10:44:53.331Z,942.41
2017-02-04T10:45:53.317Z,942.36
2017-02-04T10:46:53.304Z,942.34
2017-02-04T10:47:53.292Z,942.33
2017-02-04T10:48:53.277Z,942.34
2017-02-04T10:49:53.263Z,942.25
2017-02-04T10:50:53.251Z,942.23
2017-02-04T10:51:53.237Z,942.2
2017-02-04T10:52:53.224Z,942.19
2017-02-04T10:53:53.210Z,942.18
2017-02-04T10:54:53.198Z,942.16
2017-02-04T10:55:53.183Z,942.19
2017-02-04T10:56:53.169Z,942.2
2017-02-04T10:57:53.157Z,942.14
2017-02-04T10:58:53.144Z,942.14
2017-02-04T10:59:53.130Z,942.12
2017-02-04T11:00:53.117Z,942.13
2017-02-04T11:01:53.104Z,942.12
2017-02-04T11:02:53.093Z,942.12
2017-02-04T11:03:53.077Z,942.13
2017-02-04T11:04:53.064Z,942.06
2017-02-04T11:05:53.052Z,942.07
2017-02-04T11:06:53.038Z,942
2017-02-04T11:07:53.025Z,941.96
2017-02-04T11:08:53.011Z,941.95
2017-02-04T11:09:52.999Z,941.92
2017-02-04T11:10:52.985Z,941.92
2017-02-04T11:11:52.973Z,941.93
2017-02-04T11:12:52.962Z,941.96
2017-02-04T11:13:52.946Z,941.95
2017-02-04T11:14:52.934Z,941.98
2017-02-04T11:15:52.921Z,941.97
2017-02-04T11:16:52.908Z,941.92
2017-02-04T11:17:52.896Z,941.91
2017-02-04T11:18:52.882Z,941.93
2017-02-04T11:19:52.871Z,941.9
2017-02-04T11:20:52.856Z,941.89
2017-02-04T11:21:52.844Z,941.85
2017-02-04T11:22:52.833Z,941.78
2017-02-04T11:23:52.820Z,941.76
2017-02-04T11:24:52.806Z,941.79
2017-02-04T11:25:52.794Z,941.74
2017-02-04T11:26:52.781Z,941.7
2017-02-04T11:27:52.769Z,941.68
2017-02-04T11:28:52.754Z,941.66
2017-02-04T11:29:52.742Z,941.66
2017-02-04T11:30:52.729Z,941.64
2017-02-04T11:31:52.715Z,941.64
2017-02-04T11:32:52.703Z,941.61
2017-02-04T11:33:52.692Z,941.58
2017-02-04T11:34:52.678Z,941.55
2017-02-04T11:35:52.665Z,941.5
2017-02-04T11:36:52.653Z,941.47
2017-02-04T11:37:52.639Z,941.49
2017-02-04T11:38:52.627Z,941.46
2017-02-04T11:39:52.614Z,941.48
2017-02-04T11:40:52.602Z,941.48
2017-02-04T11:41:52.589Z,941.42
2017-02-04T11:42:52.575Z,941.46
2017-02-04T11:43:52.564Z,941.45
2017-02-04T11:44:52.552Z,941.46
2017-02-04T11:45:52.538Z,941.45
2017-02-04T11:46:52.525Z,941.4
2017-02-04T11:47:52.513Z,941.41
2017-02-04T11:48:52.500Z,941.42
2017-02-04T11:49:52.486Z,941.34
2017-02-04T11:50:52.474Z,941.32
2017-02-04T11:51:52.463Z,941.36
2017-02-04T11:52:52.451Z,941.34
2017-02-04T11:53:52.437Z,941.29
2017-02-04T11:54:52.424Z,941.28
2017-02-04T11:55:52.412Z,941.28
2017-02-04T11:56:52.399Z,941.22
2017-02-04T11:57:52.388Z,941.17
2017-02-04T11:58:52.374Z,941.17
2017-02-04T11:59:52.362Z,941.18
2017-02-04T12:00:52.351Z,941.15
2017-02-04T12:01:52.337Z,941.11
2017-02-04T12:02:52.325Z,941.15
2017-02-04T12:03:52.313Z,941.1
2017-02-04T12:04:52.300Z,941.08
2017-02-04T12:05:52.287Z,941.07
2017-02-04T12:06:52.276Z,941.06
2017-02-04T12:07:52.265Z,941.05
2017-02-04T12:08:52.250Z,941.01
2017-02-04T12:09:52.239Z,940.97
2017-02-04T12:10:52.231Z,940.93
2017-02-04T12:11:52.214Z,940.92
2017-02-04T12:12:52.201Z,940.86
2017-02-04T12:13:52.189Z,940.86
2017-02-04T12:14:52.176Z,940.81
2017-02-04T12:15:52.165Z,940.78
2017-02-04T12:16:52.152Z,940.78
2017-02-04T12:17:52.141Z,940.77
2017-02-04T12:18:52.127Z,940.74
2017-02-04T12:19:52.114Z,940.73
2017-02-04T12:20:52.103Z,940.67
2017-02-04T12:21:52.092Z,940.66
2017-02-04T12:22:52.079Z,940.65
2017-02-04T12:23:52.065Z,940.6
2017-02-04T12:24:52.054Z,940.57
2017-02-04T12:25:52.042Z,940.53
2017-02-04T12:26:52.029Z,940.43
2017-02-04T12:27:52.018Z,940.45
2017-02-04T12:28:52.004Z,940.45
2017-02-04T12:29:51.993Z,940.36
2017-02-04T12:30:51.980Z,940.35